地図

経路データ

SID SEASON NUMBER BASIN SUBBASIN NAME ISO_TIME NATURE LAT LON WMO_WIND WMO_PRES WMO_AGENCY TRACK_TYPE DIST2LAND LANDFALL IFLAG USA_AGENCY USA_ATCF_ID USA_LAT USA_LON USA_RECORD USA_STATUS USA_WIND USA_PRES USA_SSHS USA_R34_NE USA_R34_SE USA_R34_SW USA_R34_NW USA_R50_NE USA_R50_SE USA_R50_SW USA_R50_NW USA_R64_NE USA_R64_SE USA_R64_SW USA_R64_NW USA_POCI USA_ROCI USA_RMW USA_EYE TOKYO_LAT TOKYO_LON TOKYO_GRADE TOKYO_WIND TOKYO_PRES TOKYO_R50_DIR TOKYO_R50_LONG TOKYO_R50_SHORT TOKYO_R30_DIR TOKYO_R30_LONG TOKYO_R30_SHORT TOKYO_LAND CMA_LAT CMA_LON CMA_CAT CMA_WIND CMA_PRES HKO_LAT HKO_LON HKO_CAT HKO_WIND HKO_PRES NEWDELHI_LAT NEWDELHI_LON NEWDELHI_GRADE NEWDELHI_WIND NEWDELHI_PRES NEWDELHI_CI NEWDELHI_DP NEWDELHI_POCI REUNION_LAT REUNION_LON REUNION_TYPE REUNION_WIND REUNION_PRES REUNION_TNUM REUNION_CI REUNION_RMW REUNION_R34_NE REUNION_R34_SE REUNION_R34_SW REUNION_R34_NW REUNION_R50_NE REUNION_R50_SE REUNION_R50_SW REUNION_R50_NW REUNION_R64_NE REUNION_R64_SE REUNION_R64_SW REUNION_R64_NW BOM_LAT BOM_LON BOM_TYPE BOM_WIND BOM_PRES BOM_TNUM BOM_CI BOM_RMW BOM_R34_NE BOM_R34_SE BOM_R34_SW BOM_R34_NW BOM_R50_NE BOM_R50_SE BOM_R50_SW BOM_R50_NW BOM_R64_NE BOM_R64_SE BOM_R64_SW BOM_R64_NW BOM_ROCI BOM_POCI BOM_EYE BOM_POS_METHOD BOM_PRES_METHOD NADI_LAT NADI_LON NADI_CAT NADI_WIND NADI_PRES WELLINGTON_LAT WELLINGTON_LON WELLINGTON_WIND WELLINGTON_PRES DS824_LAT DS824_LON DS824_STAGE DS824_WIND DS824_PRES TD9636_LAT TD9636_LON TD9636_STAGE TD9636_WIND TD9636_PRES TD9635_LAT TD9635_LON TD9635_WIND TD9635_PRES TD9635_ROCI NEUMANN_LAT NEUMANN_LON NEUMANN_CLASS NEUMANN_WIND NEUMANN_PRES MLC_LAT MLC_LON MLC_CLASS MLC_WIND MLC_PRES USA_GUST BOM_GUST BOM_GUST_PER REUNION_GUST REUNION_GUST_PER USA_SEAHGT USA_SEARAD_NE USA_SEARAD_SE USA_SEARAD_SW USA_SEARAD_NW STORM_SPEED STORM_DIR
1991301N08173 1991 85 WP MM SETH 1991-10-28 06:00:00 NR 8.10000 173.300 main 2310 2278 O_____________ jtwc_wp WP261991 8.10000 173.300 15 -1 11 267
1991301N08173 1991 85 WP MM SETH 1991-10-28 09:00:00 NR 8.06767 172.740 main 2271 2230 P_____________ WP261991 8.06767 172.740 15 -1 11 265
1991301N08173 1991 85 WP MM SETH 1991-10-28 12:00:00 NR 8.00000 172.200 main 2230 2190 O_____________ jtwc_wp WP261991 8.00000 172.200 15 -1 11 259
1991301N08173 1991 85 WP MM SETH 1991-10-28 15:00:00 NR 7.87241 171.693 main 2190 2141 P_____________ WP261991 7.87241 171.693 15 -1 10 253
1991301N08173 1991 85 WP MM SETH 1991-10-28 18:00:00 NR 7.70000 171.200 main 2141 2093 O_____________ jtwc_wp WP261991 7.70000 171.200 15 -1 11 249
1991301N08173 1991 85 WP MM SETH 1991-10-28 21:00:00 NR 7.49994 170.700 main 2093 2045 P_____________ WP261991 7.49994 170.700 15 -1 11 248
1991301N08173 1991 85 WP MM SETH 1991-10-29 00:00:00 NR 7.30000 170.200 main 2045 1997 O_____________ jtwc_wp WP261991 7.30000 170.200 15 -1 11 250
1991301N08173 1991 85 WP MM SETH 1991-10-29 03:00:00 NR 7.13495 169.700 main 1997 1961 P_____________ WP261991 7.13495 169.700 15 -1 10 253
1991301N08173 1991 85 WP MM SETH 1991-10-29 06:00:00 NR 7.00000 169.200 main 1961 1925 O_____________ jtwc_wp WP261991 7.00000 169.200 15 -1 10 256
1991301N08173 1991 85 WP MM SETH 1991-10-29 09:00:00 NR 6.88492 168.708 main 1925 1890 P_____________ WP261991 6.88492 168.708 17 -1 10 259
1991301N08173 1991 85 WP MM SETH 1991-10-29 12:00:00 NR 6.80000 168.200 main 1890 1857 O_____________ jtwc_wp WP261991 6.80000 168.200 20 -1 11 262
1991301N08173 1991 85 WP MM SETH 1991-10-29 15:00:00 NR 6.73499 167.650 main 1857 1830 P_____________ WP261991 6.73499 167.650 20 -1 11 265
1991301N08173 1991 85 WP MM SETH 1991-10-29 18:00:00 NR 6.70000 167.100 main 1830 1810 O_____________ jtwc_wp WP261991 6.70000 167.100 20 -1 11 268
1991301N08173 1991 85 WP MM SETH 1991-10-29 21:00:00 NR 6.69243 166.593 main 1810 1791 P_____________ WP261991 6.69243 166.593 20 -1 10 270
1991301N08173 1991 85 WP MM SETH 1991-10-30 00:00:00 NR 6.70000 166.100 main 1791 1773 O_____________ jtwc_wp WP261991 6.70000 166.100 20 -1 10 270
1991301N08173 1991 85 WP MM SETH 1991-10-30 03:00:00 NR 6.69243 165.607 main 1773 1752 P_____________ WP261991 6.69243 165.607 20 -1 10 270
1991301N08173 1991 85 WP MM SETH 1991-10-30 06:00:00 NR 6.70000 165.100 main 1752 1731 O_____________ jtwc_wp WP261991 6.70000 165.100 20 -1 11 272
1991301N08173 1991 85 WP MM SETH 1991-10-30 09:00:00 NR 6.73499 164.550 main 1731 1705 P_____________ WP261991 6.73499 164.550 20 -1 11 275
1991301N08173 1991 85 WP MM SETH 1991-10-30 12:00:00 NR 6.80000 164.000 main 1705 1683 O_____________ jtwc_wp WP261991 6.80000 164.000 20 -1 11 279
1991301N08173 1991 85 WP MM SETH 1991-10-30 15:00:00 NR 6.89242 163.493 main 1683 1662 P_____________ WP261991 6.89242 163.493 22 -1 10 281
1991301N08173 1991 85 WP MM SETH 1991-10-30 18:00:00 NR 7.00000 163.000 main 1662 1637 O_____________ jtwc_wp WP261991 7.00000 163.000 25 -1 10 282
1991301N08173 1991 85 WP MM SETH 1991-10-30 21:00:00 NR 7.09995 162.500 main 1637 1630 P_____________ WP261991 7.09995 162.500 25 -1 6 285
1991301N08173 1991 85 WP MM SETH 1991-10-31 00:00:00 TS 7.16000 162.400 main 1638 1631 O_O___________ jtwc_wp WP261991 7.20000 162.000 25 -1 7.00000 164.000 1 23 1006 4 304
1991301N08173 1991 85 WP MM SETH 1991-10-31 03:00:00 TS 7.30833 162.187 main 1632 1625 P_P___________ WP261991 7.29995 161.500 25 -1 7.32511 163.560 1 26 1005 4 302
1991301N08173 1991 85 WP MM SETH 1991-10-31 06:00:00 TS 7.35000 162.088 main 1634 1613 O_OO__________ jtwc_wp WP261991 7.40000 161.000 25 -1 7.60000 163.100 1 29 1005 6.40000 163.400 TD 25 1000 4 290
1991301N08173 1991 85 WP MM SETH 1991-10-31 09:00:00 TS 7.45996 161.771 main 1622 1588 P_PP__________ WP261991 7.50742 160.508 27 -1 7.78735 162.595 1 29 1005 6.71025 162.648 TD 25 1000 9 283
1991301N08173 1991 85 WP MM SETH 1991-10-31 12:00:00 TS 7.54545 161.245 main 1581 1557 O_OO__________ jtwc_wp WP261991 7.60000 160.000 30 -1 7.90000 162.000 1 29 1005 7.00000 161.900 TD 25 1000 11 278
1991301N08173 1991 85 WP MM SETH 1991-10-31 15:00:00 TS 7.62162 160.629 main 1550 1519 P_PP__________ WP261991 7.64246 159.457 30 -1 7.96505 161.272 1 29 1005 7.25734 161.157 TD 27 997 13 278
1991301N08173 1991 85 WP MM SETH 1991-10-31 18:00:00 TS 7.73333 159.933 main 1513 1484 O_OO__________ jtwc_wp WP261991 7.70000 158.900 30 -1 8.00000 160.500 1 29 1005 7.50000 160.400 TD 30 995 14 280
1991301N08173 1991 85 WP MM SETH 1991-10-31 21:00:00 TS 7.86070 159.255 main 1494 1463 P_PP__________ WP261991 7.81990 158.357 32 -1 8.02726 159.807 1 29 1003 7.73494 159.600 TD 30 995 14 283
1991301N08173 1991 85 WP MM SETH 1991-11-01 00:00:00 TS 8.03077 158.600 1006 tokyo main 1463 1447 OOOO__________ jtwc_wp WP261991 8.00000 157.800 35 0 8.00000 159.000 2 1006 0 0 0 8.10000 159.100 1 29 1002 8.00000 158.800 TD 30 995 14 288
1991301N08173 1991 85 WP MM SETH 1991-11-01 03:00:00 TS 8.28522 157.911 main 1451 1440 PPPP__________ WP261991 8.21241 157.215 37 0 8.34776 158.160 2 1005 0 0 8.26962 158.360 1 29 1002 8.34236 158.035 TD 30 995 15 292
1991301N08173 1991 85 WP MM SETH 1991-11-01 06:00:00 TS 8.59333 157.167 1004 tokyo main 1445 1430 OOOO__________ jtwc_wp WP261991 8.50000 156.600 40 0 8.70000 157.300 2 1004 0 0 0 8.50000 157.500 1 29 1002 8.70000 157.300 TD 30 995 17 292
1991301N08173 1991 85 WP MM SETH 1991-11-01 09:00:00 TS 8.90637 156.327 main 1431 1425 PPPP__________ WP261991 8.87001 155.943 42 0 9.05749 156.420 2 1001 0 0 8.70567 156.355 1 33 1000 8.99232 156.592 TD 35 992 18 292
1991301N08173 1991 85 WP MM SETH 1991-11-01 12:00:00 TS 9.25000 155.525 35 998 tokyo main 1438 1434 OOOO__________ jtwc_wp WP261991 9.30000 155.300 45 0 9.40000 155.600 3 35 998 0 9 60 60 0 9.00000 155.300 2 38 998 9.30000 155.900 TS 40 990 16 298
1991301N08173 1991 85 WP MM SETH 1991-11-01 15:00:00 TS 9.64717 154.897 main 1447 1447 PPPP__________ WP261991 9.74980 154.742 47 0 9.68469 154.920 3 37 996 0 9 80 80 9.46929 154.732 2 38 996 9.68491 155.192 TS 45 990 14 305
1991301N08173 1991 85 WP MM SETH 1991-11-01 18:00:00 TS 10.0750 154.325 40 994 tokyo main 1482 1480 OOOO__________ jtwc_wp WP261991 10.2000 154.200 50 0 10.0000 154.300 3 40 994 0 9 100 100 0 10.0000 154.300 2 38 995 10.1000 154.500 STS 50 990 15 305
1991301N08173 1991 85 WP MM SETH 1991-11-01 21:00:00 TS 10.4925 153.684 main 1511 1509 PPPP__________ WP261991 10.5999 153.607 52 0 10.4275 153.635 3 45 992 0 9 115 115 10.4501 153.650 2 38 992 10.4923 153.842 STS 50 990 15 304
1991301N08173 1991 85 WP MM SETH 1991-11-02 00:00:00 TS 10.9250 153.050 50 990 tokyo main 1543 1543 OOOO__________ jtwc_wp WP261991 11.0000 153.000 55 0 10.9000 153.000 4 50 990 0 9 130 130 0 10.9000 153.000 2 38 990 10.9000 153.200 STS 50 990 15 307
1991301N08173 1991 85 WP MM SETH 1991-11-02 03:00:00 TS 11.3948 152.479 main 1589 1588 PPPP__________ WP261991 11.4499 152.400 57 0 11.3572 152.450 4 52 985 0 9 140 140 11.4296 152.515 2 43 987 11.3424 152.550 STS 50 985 15 309
1991301N08173 1991 85 WP MM SETH 1991-11-02 06:00:00 TS 11.8500 151.900 55 980 tokyo main 1639 1628 OOOO__________ jtwc_wp WP261991 11.9000 151.800 60 0 11.8000 151.900 4 55 980 9 40 40 9 150 150 0 11.9000 152.000 3 48 985 11.8000 151.900 STS 50 980 15 305
1991301N08173 1991 85 WP MM SETH 1991-11-02 09:00:00 TS 12.2325 151.235 main 1656 1656 PPPP__________ WP261991 12.3149 151.200 62 0 12.2075 151.250 4 57 977 9 40 40 9 150 150 12.1428 151.250 3 53 982 12.2649 151.242 STS 55 975 15 300
1991301N08173 1991 85 WP MM SETH 1991-11-02 12:00:00 TS 12.6000 150.575 60 975 tokyo main 1684 1682 OOOO__________ jtwc_wp WP261991 12.7000 150.600 65 1 12.6000 150.600 4 60 975 9 40 40 9 150 150 0 12.4000 150.500 3 58 980 12.7000 150.600 STS 60 970 14 303
1991301N08173 1991 85 WP MM SETH 1991-11-02 15:00:00 TS 13.0179 149.997 main 1715 1715 PPPP__________ WP261991 13.0574 149.992 70 1 13.0072 150.042 4 65 970 9 50 50 9 175 175 12.9421 149.978 3 63 975 13.0649 149.977 STS 65 965 14 307
1991301N08173 1991 85 WP MM SETH 1991-11-02 18:00:00 TS 13.4250 149.450 70 965 tokyo main 1751 1750 OOOO__________ jtwc_wp WP261991 13.4000 149.400 75 1 13.4000 149.500 5 70 965 9 60 60 9 200 200 0 13.5000 149.500 4 68 970 13.4000 149.400 T 70 960 13 305
1991301N08173 1991 85 WP MM SETH 1991-11-02 21:00:00 TS 13.7793 148.880 main 1789 1788 PPPP__________ WP261991 13.7574 148.835 82 1 13.7650 148.892 5 72 960 9 70 70 9 200 200 13.8375 148.900 4 68 970 13.7573 148.892 T 75 955 13 302
1991301N08173 1991 85 WP MM SETH 1991-11-03 00:00:00 TS 14.1000 148.325 75 955 tokyo main 1817 1817 OOOO__________ jtwc_wp WP261991 14.1000 148.300 90 2 14.1000 148.300 5 75 955 9 80 80 9 200 200 0 14.1000 148.300 4 68 970 14.1000 148.400 T 80 950 12 301
1991301N08173 1991 85 WP MM SETH 1991-11-03 03:00:00 TS 14.3980 147.803 main 1849 1848 PPPP__________ WP261991 14.4073 147.792 97 3 14.3998 147.785 5 77 952 9 80 80 9 205 205 14.3848 147.777 4 72 965 14.3999 147.857 T 85 945 12 301
1991301N08173 1991 85 WP MM SETH 1991-11-03 06:00:00 TS 14.7000 147.300 80 950 tokyo main 1882 1882 OOOO__________ jtwc_wp WP261991 14.7000 147.300 105 3 14.7000 147.300 5 80 950 9 80 80 9 210 210 0 14.7000 147.300 4 77 960 14.7000 147.300 ST 90 940 12 304
1991301N08173 1991 85 WP MM SETH 1991-11-03 09:00:00 TS 15.0517 146.811 main 1926 1926 PPPP__________ WP261991 14.9998 146.807 112 3 15.0498 146.815 5 82 947 9 85 85 9 210 210 15.0997 146.872 4 77 957 15.0574 146.750 ST 97 932 12 306
1991301N08173 1991 85 WP MM SETH 1991-11-03 12:00:00 TS 15.4000 146.300 85 945 tokyo main 1960 1960 OOOO__________ jtwc_wp WP261991 15.3000 146.300 120 4 15.4000 146.300 5 85 945 9 90 90 9 210 210 0 15.5000 146.400 4 77 955 15.4000 146.200 SuperT 105 925 12 302
1991301N08173 1991 85 WP MM SETH 1991-11-03 15:00:00 TS 15.7082 145.714 main 1996 1996 PPPP__________ WP261991 15.6075 145.750 125 4 15.7226 145.700 5 90 940 9 100 100 9 215 215 15.8377 145.758 4 82 947 15.6649 145.650 SuperT 107 922 13 297
1991301N08173 1991 85 WP MM SETH 1991-11-03 18:00:00 TS 15.9750 145.125 95 935 tokyo main 2034 2034 OOOO__________ jtwc_wp WP261991 15.9000 145.200 130 4 16.0000 145.100 5 95 935 9 110 110 9 220 220 0 16.1000 145.100 5 87 940 15.9000 145.100 SuperT 110 920 12 294
1991301N08173 1991 85 WP MM SETH 1991-11-03 21:00:00 TS 16.1929 144.605 main 2061 2058 PPPP__________ WP261991 16.1573 144.692 130 4 16.2072 144.592 5 97 930 9 115 115 9 230 230 16.2572 144.585 5 87 940 16.1499 144.550 SuperT 107 922 11 293
1991301N08173 1991 85 WP MM SETH 1991-11-04 00:00:00 TS 16.4000 144.100 100 925 tokyo main 2058 2010 OOOO__________ jtwc_wp WP261991 16.4000 144.200 130 4 16.4000 144.100 5 100 925 9 120 120 9 240 240 0 16.4000 144.100 5 87 940 16.4000 144.000 SuperT 105 925 11 294
1991301N08173 1991 85 WP MM SETH 1991-11-04 03:00:00 TS 16.6425 143.551 main 2010 1963 PPPP__________ WP261991 16.6499 143.700 130 4 16.6426 143.535 5 100 925 9 120 120 9 240 240 16.6276 143.535 5 92 935 16.6500 143.435 SuperT 102 927 11 296
1991301N08173 1991 85 WP MM SETH 1991-11-04 06:00:00 TS 16.9000 143.025 100 925 tokyo main 1955 1919 OOOO__________ jtwc_wp WP261991 16.9000 143.200 130 4 16.9000 143.000 5 100 925 9 120 120 9 240 240 0 16.9000 143.000 5 97 930 16.9000 142.900 SuperT 100 930 11 299
1991301N08173 1991 85 WP MM SETH 1991-11-04 09:00:00 TS 17.1642 142.565 main 1922 1887 PPPP__________ WP261991 17.1575 142.685 127 4 17.1498 142.577 5 100 925 9 120 120 9 240 240 17.1998 142.577 5 97 930 17.1499 142.420 SuperT 100 930 10 302
1991301N08173 1991 85 WP MM SETH 1991-11-04 12:00:00 TS 17.4250 142.150 100 925 tokyo main 1887 1852 OOOO__________ jtwc_wp WP261991 17.4000 142.200 125 4 17.4000 142.200 5 100 925 9 120 120 9 240 240 0 17.5000 142.200 5 97 930 17.4000 142.000 SuperT 100 930 9 303
1991301N08173 1991 85 WP MM SETH 1991-11-04 15:00:00 TS 17.6700 141.736 main 1845 1813 PPPP__________ WP261991 17.5999 141.770 122 4 17.6575 141.778 5 100 925 9 120 120 9 240 240 17.7725 141.778 5 97 930 17.6499 141.620 SuperT 97 932 9 303
1991301N08173 1991 85 WP MM SETH 1991-11-04 18:00:00 TS 17.9000 141.375 100 925 tokyo main 1813 1777 OOOO__________ jtwc_wp WP261991 17.8000 141.400 120 4 17.9000 141.400 5 100 925 9 120 120 9 240 240 0 18.0000 141.400 5 97 930 17.9000 141.300 ST 95 935 8 306
1991301N08173 1991 85 WP MM SETH 1991-11-04 21:00:00 TS 18.1142 141.095 main 1777 1747 PPPP__________ WP261991 18.0499 141.077 120 4 18.0998 141.135 5 100 925 9 120 120 9 270 240 18.1498 141.135 5 97 930 18.1574 141.035 ST 92 937 7 310
1991301N08173 1991 85 WP MM SETH 1991-11-05 00:00:00 TS 18.3250 140.850 100 925 tokyo main 1747 1711 OOOO__________ jtwc_wp WP261991 18.3000 140.800 120 4 18.3000 140.900 5 100 925 9 120 120 8 300 240 0 18.3000 140.900 5 97 930 18.4000 140.800 ST 90 940 7 311
1991301N08173 1991 85 WP MM SETH 1991-11-05 03:00:00 TS 18.5556 140.562 main 1702 1666 PPPP__________ WP261991 18.5075 140.527 117 4 18.5576 140.585 5 97 927 9 120 120 8 300 240 18.5425 140.593 5 97 930 18.6150 140.542 ST 90 940 7 311
1991301N08173 1991 85 WP MM SETH 1991-11-05 06:00:00 TS 18.7750 140.300 95 930 tokyo main 1666 1636 OOOO__________ jtwc_wp WP261991 18.7000 140.300 115 4 18.8000 140.300 5 95 930 9 120 120 8 300 240 0 18.8000 140.300 5 97 930 18.8000 140.300 ST 90 940 6 313
1991301N08173 1991 85 WP MM SETH 1991-11-05 09:00:00 TS 18.9631 140.104 main 1636 1621 PPPP__________ WP261991 18.9074 140.135 115 4 18.9649 140.127 5 95 930 9 120 120 8 300 240 19.0224 140.077 5 97 930 18.9575 140.077 ST 87 942 5 317
1991301N08173 1991 85 WP MM SETH 1991-11-05 12:00:00 TS 19.1250 139.950 95 930 tokyo main 1621 1591 OOOO__________ jtwc_wp WP261991 19.1000 140.000 115 4 19.1000 140.000 5 95 930 9 120 120 8 300 240 0 19.2000 139.900 5 97 930 19.1000 139.900 ST 85 945 4 318
1991301N08173 1991 85 WP MM SETH 1991-11-05 15:00:00 TS 19.2775 139.799 main 1591 1576 PPPP__________ WP261991 19.2725 139.843 112 3 19.2575 139.843 5 95 930 9 120 120 8 300 240 19.3225 139.727 5 97 930 19.2575 139.785 ST 85 945 4 317
1991301N08173 1991 85 WP MM SETH 1991-11-05 18:00:00 TS 19.4000 139.675 95 930 tokyo main 1576 1561 OOOO__________ jtwc_wp WP261991 19.4000 139.700 110 3 19.4000 139.700 5 95 930 9 120 120 8 300 240 0 19.4000 139.600 5 97 930 19.4000 139.700 ST 85 945 3 316
1991301N08173 1991 85 WP MM SETH 1991-11-05 21:00:00 TS 19.4843 139.584 main 1561 1556 PPPP__________ WP261991 19.4650 139.600 107 3 19.5150 139.592 5 95 932 9 120 120 8 300 240 19.4500 139.535 5 97 930 19.5075 139.607 ST 82 947 2 313
1991301N08173 1991 85 WP MM SETH 1991-11-06 00:00:00 TS 19.5500 139.500 95 935 tokyo main 1547 1541 OOOO__________ jtwc_wp WP261991 19.5000 139.500 105 3 19.6000 139.500 5 95 935 9 120 120 8 300 240 0 19.5000 139.500 5 97 930 19.6000 139.500 T 80 950 2 311
1991301N08173 1991 85 WP MM SETH 1991-11-06 03:00:00 TS 19.6344 139.395 main 1541 1526 PPPP__________ WP261991 19.5575 139.350 102 3 19.6575 139.407 5 92 937 9 115 115 8 300 240 19.6075 139.465 5 92 935 19.7150 139.358 T 80 950 3 305
1991301N08173 1991 85 WP MM SETH 1991-11-06 06:00:00 TS 19.7000 139.275 90 940 tokyo main 1526 1521 OOOO__________ jtwc_wp WP261991 19.6000 139.200 100 3 19.7000 139.300 5 90 940 9 110 110 8 300 240 0 19.7000 139.400 5 87 940 19.8000 139.200 T 80 950 3 291
1991301N08173 1991 85 WP MM SETH 1991-11-06 09:00:00 TS 19.7256 139.143 main 1516 1511 PPPP__________ WP261991 19.6075 139.100 100 3 19.7575 139.158 5 87 942 9 105 105 8 300 240 19.7150 139.265 5 87 940 19.8225 139.050 T 77 952 3 276
1991301N08173 1991 85 WP MM SETH 1991-11-06 12:00:00 TS 19.7250 139.000 85 945 tokyo main 1511 1505 OOOO__________ jtwc_wp WP261991 19.6000 139.000 100 3 19.8000 139.000 5 85 945 9 100 100 8 300 240 0 19.7000 139.100 5 87 940 19.8000 138.900 T 75 955 3 269
1991301N08173 1991 85 WP MM SETH 1991-11-06 15:00:00 TS 19.7218 138.859 main 1505 1495 PPPP__________ WP261991 19.6075 138.873 97 3 19.8149 138.865 5 82 947 9 95 95 8 300 225 19.7000 138.950 5 82 947 19.7650 138.750 T 72 957 3 265
1991301N08173 1991 85 WP MM SETH 1991-11-06 18:00:00 TS 19.7000 138.700 80 950 tokyo main 1495 1484 OOOO__________ jtwc_wp WP261991 19.6000 138.700 95 2 19.8000 138.700 5 80 950 9 90 90 8 300 210 0 19.7000 138.800 4 77 955 19.7000 138.600 T 70 960 3 258
1991301N08173 1991 85 WP MM SETH 1991-11-06 21:00:00 TS 19.6518 138.524 main 1484 1483 PPPP__________ WP261991 19.5575 138.472 95 2 19.7575 138.465 5 80 952 9 90 90 8 300 210 19.6998 138.688 4 77 955 19.5924 138.472 T 67 962 4 255
1991301N08173 1991 85 WP MM SETH 1991-11-07 00:00:00 TS 19.6000 138.300 80 955 tokyo main 1483 1468 OOOO__________ jtwc_wp WP261991 19.5000 138.200 95 2 19.7000 138.200 5 80 955 9 90 90 8 300 210 0 19.7000 138.500 4 77 955 19.5000 138.300 T 65 965 5 260
1991301N08173 1991 85 WP MM SETH 1991-11-07 03:00:00 TS 19.5675 138.008 main 1468 1453 PPPP__________ WP261991 19.4424 137.915 95 2 19.6424 137.957 5 80 955 9 90 90 8 300 205 19.7002 138.130 4 77 955 19.4850 138.030 T 67 962 6 265
1991301N08173 1991 85 WP MM SETH 1991-11-07 06:00:00 TS 19.5500 137.675 80 955 tokyo main 1453 1449 OOOO__________ jtwc_wp WP261991 19.4000 137.600 95 2 19.6000 137.700 5 80 955 9 90 90 8 300 200 0 19.7000 137.700 4 77 955 19.5000 137.700 T 70 960 6 268
1991301N08173 1991 85 WP MM SETH 1991-11-07 09:00:00 TS 19.5481 137.336 main 1445 1421 PPPP__________ WP261991 19.3925 137.243 95 2 19.5924 137.415 5 80 952 9 90 90 8 300 200 19.7149 137.335 4 77 955 19.4925 137.350 T 75 955 6 270
1991301N08173 1991 85 WP MM SETH 1991-11-07 12:00:00 TS 19.5500 137.000 80 950 tokyo main 1421 1418 OOOO__________ jtwc_wp WP261991 19.4000 136.900 95 2 19.6000 137.100 5 80 950 9 90 90 8 300 200 0 19.7000 137.000 4 77 955 19.5000 137.000 T 80 950 6 268
1991301N08173 1991 85 WP MM SETH 1991-11-07 15:00:00 TS 19.5299 136.694 main 1418 1406 PPPP__________ WP261991 19.3924 136.642 97 3 19.5925 136.750 5 82 947 9 100 100 8 300 200 19.5924 136.692 4 77 955 19.5424 136.693 T 85 945 6 267
1991301N08173 1991 85 WP MM SETH 1991-11-07 18:00:00 TS 19.5250 136.400 85 945 tokyo main 1406 1383 OOOO__________ jtwc_wp WP261991 19.4000 136.400 100 3 19.6000 136.400 5 85 945 9 110 110 8 300 200 0 19.5000 136.400 4 77 955 19.6000 136.400 ST 90 940 6 275
1991301N08173 1991 85 WP MM SETH 1991-11-07 21:00:00 TS 19.5749 136.100 main 1383 1370 PPPP__________ WP261991 19.4500 136.108 100 3 19.6499 136.093 5 87 942 9 115 115 8 300 210 19.5350 136.100 4 77 955 19.6650 136.100 ST 92 940 6 280
1991301N08173 1991 85 WP MM SETH 1991-11-08 00:00:00 TS 19.6250 135.800 90 940 tokyo main 1370 1342 OOOO__________ jtwc_wp WP261991 19.5000 135.800 100 3 19.7000 135.800 5 90 940 9 120 120 8 300 220 0 19.6000 135.800 4 77 955 19.7000 135.800 ST 95 940 6 275
1991301N08173 1991 85 WP MM SETH 1991-11-08 03:00:00 TS 19.6256 135.498 main 1342 1314 PPPP__________ WP261991 19.5149 135.508 102 3 19.7150 135.493 5 90 940 9 120 120 8 285 245 19.6075 135.492 4 77 955 19.6649 135.500 ST 95 940 6 267
1991301N08173 1991 85 WP MM SETH 1991-11-08 06:00:00 TS 19.6000 135.200 90 940 tokyo main 1314 1286 OOOO__________ jtwc_wp WP261991 19.5000 135.200 105 3 19.7000 135.200 5 90 940 9 120 120 9 270 270 0 19.6000 135.200 4 77 955 19.6000 135.200 ST 95 940 6 265
1991301N08173 1991 85 WP MM SETH 1991-11-08 09:00:00 TS 19.5774 134.911 main 1286 1253 PPPP__________ WP261991 19.4650 134.850 107 3 19.6649 134.950 5 92 937 9 120 120 9 270 270 19.6224 134.950 4 82 947 19.5575 134.893 ST 95 940 5 262
1991301N08173 1991 85 WP MM SETH 1991-11-08 12:00:00 TS 19.5250 134.625 95 935 tokyo main 1253 1230 OOOO__________ jtwc_wp WP261991 19.4000 134.500 110 3 19.6000 134.700 5 95 935 9 120 120 9 270 270 0 19.6000 134.700 5 87 940 19.5000 134.600 ST 95 940 5 255
1991301N08173 1991 85 WP MM SETH 1991-11-08 15:00:00 TS 19.4349 134.349 main 1220 1197 PPPP__________ WP261991 19.3074 134.200 112 3 19.5299 134.415 5 95 932 9 125 125 9 297 270 19.4799 134.415 5 87 940 19.4223 134.365 ST 92 942 6 247
1991301N08173 1991 85 WP MM SETH 1991-11-08 18:00:00 TS 19.3000 134.050 95 930 tokyo main 1197 1149 OOOO__________ jtwc_wp WP261991 19.2000 133.900 115 4 19.4000 134.100 5 95 930 9 130 130 4 325 270 0 19.3000 134.100 5 87 940 19.3000 134.100 ST 90 945 7 242
1991301N08173 1991 85 WP MM SETH 1991-11-08 21:00:00 TS 19.1125 133.702 main 1149 1101 PPPP__________ WP261991 19.1075 133.558 115 4 19.1499 133.765 5 95 930 9 130 130 4 312 285 19.0924 133.765 5 87 940 19.1000 133.722 ST 87 947 8 241
1991301N08173 1991 85 WP MM SETH 1991-11-09 00:00:00 TS 18.9250 133.325 95 930 tokyo main 1101 1068 OOOO__________ jtwc_wp WP261991 19.0000 133.200 115 4 18.9000 133.400 5 95 930 9 130 130 9 300 300 0 18.9000 133.400 5 87 940 18.9000 133.300 ST 85 950 8 246
1991301N08173 1991 85 WP MM SETH 1991-11-09 03:00:00 TS 18.7993 132.949 main 1059 1026 PPPP__________ WP261991 18.8499 132.857 115 4 18.7774 133.015 5 95 930 9 125 125 9 290 290 18.7849 133.015 5 87 940 18.7849 132.908 ST 82 952 8 253
1991301N08173 1991 85 WP MM SETH 1991-11-09 06:00:00 TS 18.7000 132.550 95 930 tokyo main 1026 975 OOOO__________ jtwc_wp WP261991 18.7000 132.500 115 4 18.7000 132.600 5 95 930 9 120 120 9 280 280 0 18.7000 132.600 5 87 940 18.7000 132.500 T 80 955 8 255
1991301N08173 1991 85 WP MM SETH 1991-11-09 09:00:00 TS 18.5906 132.122 main 975 934 PPPP__________ WP261991 18.5849 132.115 112 3 18.5924 132.157 5 95 930 9 120 120 9 280 280 18.5924 132.157 5 87 940 18.5924 132.057 T 75 957 9 256
1991301N08173 1991 85 WP MM SETH 1991-11-09 12:00:00 TS 18.5000 131.675 95 930 tokyo main 934 883 OOOO__________ jtwc_wp WP261991 18.5000 131.700 110 3 18.5000 131.700 5 95 930 9 120 120 9 280 280 0 18.5000 131.700 5 87 940 18.5000 131.600 T 70 960 9 260
1991301N08173 1991 85 WP MM SETH 1991-11-09 15:00:00 TS 18.4387 131.219 main 883 849 PPPP__________ WP261991 18.4425 131.250 110 3 18.4349 131.243 5 95 930 9 120 120 9 280 280 18.4349 131.243 5 87 940 18.4424 131.143 T 70 960 9 263
1991301N08173 1991 85 WP MM SETH 1991-11-09 18:00:00 TS 18.4000 130.775 95 930 tokyo main 849 815 OOOO__________ jtwc_wp WP261991 18.4000 130.800 110 3 18.4000 130.800 5 95 930 9 120 120 9 280 280 0 18.4000 130.800 5 87 940 18.4000 130.700 T 70 960 8 265
1991301N08173 1991 85 WP MM SETH 1991-11-09 21:00:00 TS 18.3693 130.364 main 815 781 PPPP__________ WP261991 18.3499 130.385 107 3 18.3924 130.393 5 95 930 9 120 120 9 280 280 18.3924 130.393 5 87 940 18.3424 130.285 T 72 957 8 266
1991301N08173 1991 85 WP MM SETH 1991-11-10 00:00:00 TS 18.3500 129.975 95 930 tokyo main 781 742 OOOO__________ jtwc_wp WP261991 18.3000 130.000 105 3 18.4000 130.000 5 95 930 9 120 120 9 280 280 0 18.4000 130.000 5 87 940 18.3000 129.900 T 75 955 7 268
1991301N08173 1991 85 WP MM SETH 1991-11-10 03:00:00 TS 18.3374 129.594 main 742 710 PPPP__________ WP261991 18.2499 129.650 105 3 18.4075 129.593 5 95 930 9 120 120 9 280 280 18.4000 129.592 5 87 940 18.2924 129.543 T 77 952 7 268
1991301N08173 1991 85 WP MM SETH 1991-11-10 06:00:00 TS 18.3250 129.225 95 930 tokyo main 710 687 OOOO__________ jtwc_wp WP261991 18.2000 129.300 105 3 18.4000 129.200 5 95 930 9 120 120 9 280 280 0 18.4000 129.200 5 87 940 18.3000 129.200 T 80 950 7 268
1991301N08173 1991 85 WP MM SETH 1991-11-10 09:00:00 TS 18.3093 128.851 main 687 652 PPPP__________ WP261991 18.1500 128.893 102 3 18.3574 128.835 5 95 930 9 120 120 9 280 280 18.4149 128.835 5 87 940 18.3150 128.843 T 80 950 7 266
1991301N08173 1991 85 WP MM SETH 1991-11-10 12:00:00 TS 18.2750 128.500 95 930 tokyo main 652 618 OOOO__________ jtwc_wp WP261991 18.1000 128.500 100 3 18.3000 128.500 5 95 930 9 120 120 9 280 280 0 18.4000 128.500 5 87 940 18.3000 128.500 T 80 950 6 262
1991301N08173 1991 85 WP MM SETH 1991-11-10 15:00:00 TS 18.2168 128.185 main 618 585 PPPP__________ WP261991 18.0574 128.185 100 3 18.2649 128.185 5 95 930 9 120 120 9 280 280 18.3299 128.185 5 87 940 18.2149 128.185 T 77 952 6 255
1991301N08173 1991 85 WP MM SETH 1991-11-10 18:00:00 TS 18.1250 127.900 95 930 tokyo main 585 552 OOOO__________ jtwc_wp WP261991 18.0000 127.900 100 3 18.2000 127.900 5 95 930 9 120 120 9 280 280 0 18.2000 127.900 5 87 940 18.1000 127.900 T 75 955 6 247
1991301N08173 1991 85 WP MM SETH 1991-11-10 21:00:00 TS 17.9912 127.632 main 552 529 PPPP__________ WP261991 17.9000 127.592 97 3 18.0649 127.642 5 92 935 9 130 110 9 290 265 17.9999 127.650 5 87 940 17.9999 127.643 T 72 957 6 241
1991301N08173 1991 85 WP MM SETH 1991-11-11 00:00:00 TS 17.8500 127.375 90 940 tokyo main 529 494 OOOO__________ jtwc_wp WP261991 17.8000 127.300 95 2 17.9000 127.400 5 90 940 7 140 100 7 300 250 0 17.8000 127.400 5 87 940 17.9000 127.400 T 70 960 6 243
1991301N08173 1991 85 WP MM SETH 1991-11-11 03:00:00 TS 17.7388 127.103 main 494 473 PPPP__________ WP261991 17.7424 127.043 95 2 17.7350 127.142 5 87 942 7 140 100 7 300 250 17.6776 127.085 5 87 940 17.8000 127.143 T 67 962 5 248
1991301N08173 1991 85 WP MM SETH 1991-11-11 06:00:00 TS 17.6500 126.850 85 945 tokyo main 473 451 OOOO__________ jtwc_wp WP261991 17.7000 126.800 95 2 17.6000 126.900 5 85 945 7 140 100 7 300 250 0 17.6000 126.800 5 87 940 17.7000 126.900 T 65 965 5 249
1991301N08173 1991 85 WP MM SETH 1991-11-11 09:00:00 TS 17.5762 126.650 main 451 428 PPPP__________ WP261991 17.6424 126.557 95 2 17.5349 126.700 5 80 950 7 130 100 7 300 250 17.5349 126.643 5 82 947 17.5924 126.700 T 60 970 4 252
1991301N08173 1991 85 WP MM SETH 1991-11-11 12:00:00 TS 17.5250 126.450 75 955 tokyo main 428 396 OOOO__________ jtwc_wp WP261991 17.6000 126.300 95 2 17.5000 126.500 5 75 955 7 120 100 7 300 250 0 17.5000 126.500 4 77 955 17.5000 126.500 STS 55 975 4 260
1991301N08173 1991 85 WP MM SETH 1991-11-11 15:00:00 TS 17.4981 126.206 main 396 365 PPPP__________ WP261991 17.5925 126.008 90 2 17.4500 126.265 5 72 960 7 110 90 7 270 225 17.5074 126.288 4 72 960 17.4425 126.265 STS 50 980 5 264
1991301N08173 1991 85 WP MM SETH 1991-11-11 18:00:00 TS 17.4750 125.925 70 965 tokyo main 365 332 OOOO__________ jtwc_wp WP261991 17.6000 125.700 85 2 17.4000 126.000 5 70 965 7 100 80 7 240 200 0 17.5000 126.000 4 68 965 17.4000 126.000 TS 45 985 6 262
1991301N08173 1991 85 WP MM SETH 1991-11-11 21:00:00 TS 17.4212 125.619 main 332 300 PPPP__________ WP261991 17.5849 125.407 80 1 17.3499 125.723 5 67 967 7 90 80 7 240 200 17.4076 125.607 4 68 965 17.3423 125.737 TS 42 987 6 261
1991301N08173 1991 85 WP MM SETH 1991-11-12 00:00:00 TS 17.3750 125.275 65 970 tokyo main 300 257 OOOO__________ jtwc_wp WP261991 17.6000 125.100 75 1 17.3000 125.400 5 65 970 9 80 80 7 240 200 0 17.3000 125.200 4 68 965 17.3000 125.400 TS 40 990 7 263
1991301N08173 1991 85 WP MM SETH 1991-11-12 03:00:00 TS 17.3355 124.917 main 257 217 PPPP__________ WP261991 17.6774 124.765 70 1 17.2123 125.045 5 60 975 9 70 70 7 230 175 17.1896 124.937 4 63 970 17.2626 124.922 TS 35 992 7 270
1991301N08173 1991 85 WP MM SETH 1991-11-12 06:00:00 TS 17.3750 124.500 55 980 tokyo main 217 168 OOOO__________ jtwc_wp WP261991 17.8000 124.400 65 1 17.2000 124.600 4 55 980 9 60 60 7 220 150 0 17.2000 124.600 3 58 975 17.3000 124.400 TD 30 995 9 283
1991301N08173 1991 85 WP MM SETH 1991-11-12 09:00:00 TS 17.5426 123.983 main 168 129 PPPP__________ WP261991 17.9349 124.015 62 0 17.3402 124.015 4 52 982 9 7 210 135 17.4405 123.966 3 53 980 17.4549 123.935 TD 27 997 11 293
1991301N08173 1991 85 WP MM SETH 1991-11-12 12:00:00 TS 17.8000 123.450 50 985 tokyo main 129 77 OOOO__________ jtwc_wp WP261991 18.1000 123.600 60 0 17.6000 123.400 4 50 985 0 7 200 120 0 17.8000 123.300 3 48 985 17.7000 123.500 TD 25 1000 11 301
1991301N08173 1991 85 WP MM SETH 1991-11-12 15:00:00 TS 18.1055 122.981 main 77 31 PPPP__________ WP261991 18.2925 123.150 57 0 17.9500 122.840 4 47 987 0 7 170 130 18.1797 122.840 3 43 987 17.9999 123.093 TD 25 1000 10 306
1991301N08173 1991 85 WP MM SETH 1991-11-12 18:00:00 TS 18.4000 122.575 45 990 tokyo main 31 11 OOOO__________ jtwc_wp WP261991 18.5000 122.700 55 0 18.3000 122.400 3 45 990 0 9 140 140 0 18.5000 122.500 2 38 990 18.3000 122.700 TD 25 1000 8 305
1991301N08173 1991 85 WP MM SETH 1991-11-12 21:00:00 TS 18.5879 122.255 main 22 22 PPPP__________ WP261991 18.6999 122.285 52 0 18.5297 122.170 3 40 993 0 9 120 120 18.5922 122.257 2 38 990 18.5299 122.307 TD 25 1000 7 301
1991301N08173 1991 85 WP MM SETH 1991-11-13 00:00:00 TS 18.7500 121.950 35 996 tokyo main 45 35 OOOO__________ jtwc_wp WP261991 18.9000 121.900 50 0 18.7000 122.000 3 35 996 0 9 100 100 0 18.7000 122.000 2 38 990 18.7000 121.900 TD 25 1000 8 301
1991301N08173 1991 85 WP MM SETH 1991-11-13 03:00:00 TS 18.9795 121.555 main 59 55 PPPP__________ WP261991 19.1149 121.535 47 0 18.8725 121.708 3 35 998 0 9 90 90 19.0927 121.558 2 38 992 18.8377 121.420 TD 25 1000 8 300
1991301N08173 1991 85 WP MM SETH 1991-11-13 06:00:00 TS 19.1750 121.175 35 1000 tokyo main 74 67 OOOO__________ jtwc_wp WP261991 19.3000 121.200 45 0 19.0000 121.400 3 35 1000 0 9 80 80 0 19.5000 121.100 2 38 995 18.9000 121.000 TD 25 1000 7 295
1991301N08173 1991 85 WP MM SETH 1991-11-13 09:00:00 TS 19.2768 120.888 main 78 78 PPPP__________ WP261991 19.4375 120.877 42 0 19.0799 121.150 3 35 1001 0 9 80 80 19.7173 120.770 2 38 995 18.8723 120.755 TD 25 1000 5 284
1991301N08173 1991 85 WP MM SETH 1991-11-13 12:00:00 TS 19.3000 120.650 35 1002 tokyo main 79 79 OOOO__________ jtwc_wp WP261991 19.5000 120.600 40 0 19.1000 120.900 3 35 1002 0 9 80 80 0 19.8000 120.500 2 38 995 18.8000 120.600 TD 25 1000 5 270
1991301N08173 1991 85 WP MM SETH 1991-11-13 15:00:00 TS 19.2781 120.406 main 88 85 PPPP__________ WP261991 19.5024 120.377 40 0 19.0725 120.592 3 35 1002 0 9 80 80 19.7800 120.212 2 38 996 18.7575 120.443 TD 25 1000 4 261
1991301N08173 1991 85 WP MM SETH 1991-11-13 18:00:00 TS 19.2333 120.193 35 1002 tokyo main 92 92 OOOO__________ jtwc_wp WP261991 19.4000 120.200 40 0 19.0000 120.300 3 35 1002 0 9 80 80 0 19.7000 120.000 2 38 998 18.7000 120.300 TD 25 1000 4 254
1991301N08173 1991 85 WP MM SETH 1991-11-13 21:00:00 TS 19.1828 120.046 main 107 100 PPPP__________ WP261991 19.1949 120.058 37 0 18.9524 120.085 3 1005 0 9 19.6874 119.943 2 38 998 18.6100 120.152 TD 25 1000 3 236
1991301N08173 1991 85 WP MM SETH 1991-11-14 00:00:00 TS 19.0538 119.908 1008 tokyo main 107 99 OOOO__________ jtwc_wp WP261991 18.9000 119.900 35 0 18.8000 119.900 2 1008 0 0 0 19.6000 119.900 2 38 998 18.5000 120.000 TD 25 1000 5 220
1991301N08173 1991 85 WP MM SETH 1991-11-14 03:00:00 TS 18.7925 119.698 main 104 100 PPP___________ WP261991 18.5875 119.673 32 -1 18.4599 119.723 2 1008 0 0 19.3301 119.700 2 33 999 TD 8 211
1991301N08173 1991 85 WP MM SETH 1991-11-14 06:00:00 TS 18.3455 119.464 1008 tokyo main 107 107 OOO___________ jtwc_wp WP261991 18.2000 119.400 30 -1 18.0000 119.500 2 1008 0 0 0 19.0000 119.500 1 29 1000 11 206
1991301N08173 1991 85 WP MM SETH 1991-11-14 09:00:00 TS 17.8464 119.213 main 118 118 PPP___________ WP261991 17.7372 119.145 27 -1 17.5150 119.180 2 1008 0 0 18.7274 119.413 1 26 1002 12 208
1991301N08173 1991 85 WP MM SETH 1991-11-14 12:00:00 TS 17.2556 118.867 1008 tokyo main 147 135 OOO___________ jtwc_wp WP261991 17.2000 118.800 25 -1 17.0000 118.800 2 1008 0 0 0 18.5000 119.400 1 23 1004 15 211
1991301N08173 1991 85 WP MM SETH 1991-11-14 15:00:00 TS 16.5497 118.385 main 149 149 PP____________ WP261991 16.5999 118.310 25 -1 16.4996 118.461 2 1008 0 0 1 16 217
1991301N08173 1991 85 WP MM SETH 1991-11-14 18:00:00 TS 16.0000 117.871 1008 tokyo main 192 192 OO____________ jtwc_wp WP261991 16.0000 117.700 25 -1 16.0000 118.000 2 1008 0 0 0 16 226
1991301N08173 1991 85 WP MM SETH 1991-11-14 21:00:00 TS 15.4670 117.207 main 273 273 PP____________ WP261991 15.4755 117.017 25 -1 15.4627 117.302 2 1008 0 0 17 234
1991301N08173 1991 85 WP MM SETH 1991-11-15 00:00:00 TS 15.0000 116.450 1008 tokyo main 360 360 OO____________ jtwc_wp WP261991 15.0000 116.300 25 -1 15.0000 116.500 2 1008 0 0 0 16 242
1991301N08173 1991 85 WP MM SETH 1991-11-15 03:00:00 TS 14.7002 115.733 main 453 453 _P____________ WP261991 -1 14.7002 115.733 2 1009 0 0 15 250
1991301N08173 1991 85 WP MM SETH 1991-11-15 06:00:00 TS 14.5000 115.000 1010 tokyo main 531 _O____________ -1 14.5000 115.000 2 1010 0 0 0 15 254

デジタル台風データ・検索

IBTrACS Databaseについて

本データベースは、米国NOAAが公開する1842年以降の世界の熱帯低気圧のベストトラックデータアーカイブInternational Best Track Archive for Climate Stewardship (IBTrACS)を、ウェブで閲覧しやすい形式に変換したものです。

最終更新日:2021-10-21